Rio Crespo, Brazil
Current Conditions -  °F | °C
As of 12:00 PM on Monday 24 Nov 2014 (Local Time) from SBPV Reporting Station
Broken Clouds Broken Clouds  
Wind Chill: 86°   Ceiling: 2000
Heat Index: 95°   Visibility: 6mi
Dew Point: 75°   Wind: 7mph
Humidity: 70%   Direction: 330°NNW
Pressure: 29.83"   Gusts: NA
Location:  9.71°S, 62.9°W
Report Text: SBPV 241600Z 33006KT 9999 BKN020 30/24 Q1010
Loading
Personal Weather Stations






























Interactive Weather Map New forecast layout! Learn more

10-Day Weather Forecast

Advertisements
Track Severe Weather on mobile